createdAt,value
2023-03-02T00:03:22.459Z,10.85
2023-03-02T00:08:16.857Z,11.95
2023-03-02T00:13:08.621Z,12.50
2023-03-02T00:18:00.341Z,13.85
2023-03-02T00:22:51.991Z,14.43
2023-03-02T00:27:43.712Z,15.25
2023-03-02T00:32:35.898Z,16.70
2023-03-02T00:37:27.588Z,18.23
2023-03-02T00:42:20.271Z,18.60
2023-03-02T00:47:12.576Z,19.98
2023-03-02T00:52:05.535Z,18.52
2023-03-02T00:56:57.244Z,21.35
2023-03-02T01:01:57.975Z,20.10
2023-03-02T01:06:51.659Z,21.73
2023-03-02T01:11:43.512Z,23.33
2023-03-02T01:16:35.555Z,20.85
2023-03-02T01:21:27.447Z,22.88
2023-03-02T01:26:19.146Z,23.30
2023-03-02T01:31:10.888Z,21.65
2023-03-02T01:36:02.914Z,22.83
2023-03-02T01:40:54.735Z,21.55
2023-03-02T01:45:54.295Z,23.33
2023-03-02T01:50:54.403Z,24.30
2023-03-02T01:55:47.750Z,22.33
2023-03-02T02:00:40.812Z,23.50
2023-03-02T02:11:08.181Z,23.85
2023-03-02T02:15:59.975Z,23.42
2023-03-02T02:20:54.165Z,26.52
2023-03-02T02:26:09.893Z,23.60
2023-03-02T02:31:11.074Z,24.80
2023-03-02T02:36:08.089Z,24.73
2023-03-02T02:45:59.668Z,22.15
2023-03-02T02:51:00.634Z,22.77
2023-03-02T02:55:54.886Z,23.23
2023-03-02T03:00:46.827Z,25.10
2023-03-02T03:05:38.517Z,24.90
2023-03-02T03:10:40.177Z,22.23
2023-03-02T03:15:32.764Z,23.67
2023-03-02T03:20:26.080Z,24.77
2023-03-02T03:25:17.817Z,20.67
2023-03-02T03:30:15.184Z,23.10
2023-03-02T03:35:11.600Z,22.52
2023-03-02T03:40:05.791Z,23.13
2023-03-02T03:44:58.100Z,23.80
2023-03-02T03:49:49.938Z,24.10
2023-03-02T03:54:42.257Z,22.20
2023-03-02T03:59:34.213Z,22.83
2023-03-02T04:04:31.123Z,24.20
2023-03-02T04:09:24.131Z,24.08
2023-03-02T04:14:17.381Z,23.85
2023-03-02T04:19:10.898Z,22.02
2023-03-02T04:24:06.633Z,22.13
2023-03-02T04:28:58.814Z,23.50
2023-03-02T04:33:50.838Z,21.77
2023-03-02T04:38:43.061Z,23.48
2023-03-02T04:43:34.840Z,20.63
2023-03-02T04:48:26.501Z,22.70
2023-03-02T04:53:18.268Z,21.23
2023-03-02T04:58:10.045Z,21.92
2023-03-02T05:03:04.084Z,22.38
2023-03-02T05:07:56.141Z,22.30
2023-03-02T05:13:05.186Z,21.70
2023-03-02T05:17:57.752Z,22.33
2023-03-02T05:22:49.470Z,20.50
2023-03-02T05:27:41.483Z,19.30
2023-03-02T05:32:33.239Z,19.83
2023-03-02T05:37:24.937Z,20.85
2023-03-02T05:42:16.590Z,21.10
2023-03-02T05:47:08.414Z,19.50
2023-03-02T05:52:00.212Z,20.13
2023-03-02T05:56:51.856Z,19.30
2023-03-02T06:01:43.558Z,17.63
2023-03-02T06:06:35.722Z,17.58
2023-03-02T06:11:27.693Z,17.80
2023-03-02T06:16:19.441Z,15.90
2023-03-02T06:21:11.184Z,15.18
2023-03-02T06:26:08.556Z,15.32
2023-03-02T06:31:00.633Z,15.57
2023-03-02T06:35:52.604Z,14.55
2023-03-02T06:40:44.644Z,15.23
2023-03-02T06:45:37.895Z,13.57
2023-03-02T06:50:29.710Z,13.30
2023-03-02T06:55:21.469Z,13.38
2023-03-02T07:00:17.050Z,12.60
2023-03-02T07:05:08.898Z,12.65
2023-03-02T07:10:00.561Z,12.38
2023-03-02T07:14:52.242Z,12.40
2023-03-02T07:19:43.927Z,13.55
2023-03-02T07:24:35.593Z,14.25
2023-03-02T07:29:27.241Z,14.23
2023-03-02T07:34:18.942Z,13.65
2023-03-02T07:39:10.601Z,15.75
2023-03-02T07:44:02.376Z,18.13
2023-03-02T07:48:54.156Z,16.65
2023-03-02T07:53:46.422Z,16.05
2023-03-02T07:58:38.459Z,17.20
2023-03-02T08:03:30.369Z,20.05
2023-03-02T08:08:22.068Z,17.92
2023-03-02T08:13:13.767Z,18.30
2023-03-02T08:18:05.471Z,21.45
2023-03-02T08:22:57.640Z,20.77
2023-03-02T08:27:49.426Z,23.65
2023-03-02T08:32:41.430Z,22.70
2023-03-02T08:37:34.408Z,23.52
2023-03-02T08:42:26.171Z,24.08
2023-03-02T08:47:17.854Z,23.33
2023-03-02T08:52:09.627Z,24.60
2023-03-02T08:57:02.697Z,27.50
2023-03-02T09:01:54.510Z,29.80
2023-03-02T09:06:46.310Z,30.75
2023-03-02T09:11:38.430Z,30.88
2023-03-02T09:16:30.309Z,32.05
2023-03-02T09:21:22.615Z,29.73
2023-03-02T09:26:14.297Z,36.85
2023-03-02T09:31:08.350Z,35.85
2023-03-02T09:36:01.562Z,37.63
2023-03-02T09:41:18.221Z,36.35
2023-03-02T09:46:12.587Z,36.08
2023-03-02T09:51:23.043Z,38.47
2023-03-02T09:56:17.870Z,36.25
2023-03-02T10:01:16.948Z,34.85
2023-03-02T10:06:09.504Z,35.63
2023-03-02T10:11:38.998Z,31.83
2023-03-02T10:21:38.874Z,32.88
2023-03-02T10:26:41.468Z,32.40
2023-03-02T10:31:34.215Z,32.67
2023-03-02T10:36:35.908Z,33.50
2023-03-02T10:41:36.244Z,32.15
2023-03-02T10:46:41.247Z,31.05
2023-03-02T10:51:35.637Z,30.58
2023-03-02T10:56:27.370Z,31.33
2023-03-02T11:01:19.688Z,31.63
2023-03-02T11:06:20.108Z,34.45
2023-03-02T11:11:23.207Z,29.33
2023-03-02T11:16:18.002Z,29.55
2023-03-02T11:21:14.881Z,28.42
2023-03-02T11:26:17.529Z,29.98
2023-03-02T11:31:18.780Z,30.75
2023-03-02T11:36:22.383Z,30.90
2023-03-02T11:41:24.700Z,31.63
2023-03-02T11:46:26.911Z,30.95
2023-03-02T11:51:23.120Z,31.88
2023-03-02T11:56:15.070Z,31.50
2023-03-02T12:01:13.070Z,33.50
2023-03-02T12:06:25.155Z,34.17
2023-03-02T12:11:16.744Z,33.67
2023-03-02T12:16:23.768Z,32.03
2023-03-02T12:21:18.664Z,33.22
2023-03-02T12:26:19.536Z,32.30
2023-03-02T12:31:13.545Z,31.75
2023-03-02T12:36:13.328Z,33.53
2023-03-02T12:41:32.793Z,32.25
2023-03-02T12:46:36.172Z,32.00
2023-03-02T12:51:32.676Z,29.83
2023-03-02T12:56:26.224Z,27.50
2023-03-02T13:01:27.279Z,29.77
2023-03-02T13:06:20.542Z,28.80
2023-03-02T13:11:12.587Z,32.38
2023-03-02T13:16:26.291Z,42.72
2023-03-02T13:21:18.971Z,36.78
2023-03-02T13:26:25.663Z,31.27
2023-03-02T13:31:23.652Z,29.05
2023-03-02T13:36:31.218Z,31.88
2023-03-02T13:41:24.860Z,31.45
2023-03-02T13:46:16.531Z,33.17
2023-03-02T13:51:19.118Z,30.02
2023-03-02T13:56:15.813Z,28.83
2023-03-02T14:01:07.975Z,32.90
2023-03-02T14:06:00.683Z,30.80
2023-03-02T14:10:57.188Z,29.58
2023-03-02T14:15:51.434Z,38.42
2023-03-02T14:20:43.115Z,32.60
2023-03-02T14:25:34.993Z,30.60
2023-03-02T14:30:26.692Z,33.53
2023-03-02T14:35:18.340Z,31.85
2023-03-02T14:40:30.464Z,34.50
2023-03-02T14:45:23.140Z,32.40
2023-03-02T14:50:16.550Z,32.17
2023-03-02T14:55:18.489Z,31.00
2023-03-02T15:00:15.422Z,30.80
2023-03-02T15:05:07.597Z,29.23
2023-03-02T15:09:59.381Z,29.10
2023-03-02T15:14:51.178Z,29.75
2023-03-02T15:19:42.934Z,27.70
2023-03-02T15:24:34.588Z,30.30
2023-03-02T15:29:26.277Z,29.13
2023-03-02T15:34:18.003Z,29.70
2023-03-02T15:39:14.002Z,31.40
2023-03-02T15:44:05.756Z,26.38
2023-03-02T15:48:57.445Z,28.73
2023-03-02T15:53:49.169Z,27.60
2023-03-02T15:58:45.188Z,24.65
2023-03-02T16:03:39.786Z,27.67
2023-03-02T16:08:31.501Z,25.92
2023-03-02T16:13:23.147Z,25.25
2023-03-02T16:18:14.865Z,28.23
2023-03-02T16:23:08.264Z,29.02
2023-03-02T16:28:01.230Z,27.83
2023-03-02T16:32:57.217Z,25.80
2023-03-02T16:37:48.953Z,27.58
2023-03-02T16:42:41.302Z,26.42
2023-03-02T16:47:33.025Z,27.00
2023-03-02T16:52:24.802Z,28.23
2023-03-02T16:57:16.557Z,27.77
2023-03-02T17:02:10.531Z,27.70
2023-03-02T17:07:03.228Z,28.00
2023-03-02T17:11:55.052Z,28.38
2023-03-02T17:16:46.826Z,27.10
2023-03-02T17:21:38.537Z,28.13
2023-03-02T17:26:30.310Z,27.52
2023-03-02T17:31:22.096Z,25.55
2023-03-02T17:36:15.414Z,24.00
2023-03-02T17:41:09.052Z,26.73
2023-03-02T17:46:12.867Z,25.60
2023-03-02T17:51:04.764Z,24.65
2023-03-02T17:55:56.462Z,23.60
2023-03-02T18:00:48.133Z,25.05
2023-03-02T18:05:39.825Z,25.48
2023-03-02T18:10:31.530Z,27.10
2023-03-02T18:15:23.709Z,28.40
2023-03-02T18:20:15.796Z,25.48
2023-03-02T18:25:08.171Z,24.17
2023-03-02T18:29:59.864Z,24.48
2023-03-02T18:34:51.661Z,25.77
2023-03-02T18:39:43.959Z,23.30
2023-03-02T18:44:35.822Z,24.98
2023-03-02T18:49:28.473Z,25.00
2023-03-02T18:54:20.234Z,26.17
2023-03-02T18:59:13.351Z,24.48
2023-03-02T19:04:05.639Z,26.77
2023-03-02T19:08:57.498Z,26.63
2023-03-02T19:13:49.233Z,27.83
2023-03-02T19:18:40.977Z,25.00
2023-03-02T19:23:33.313Z,26.85
2023-03-02T19:28:26.103Z,25.98
2023-03-02T19:33:18.047Z,28.88
2023-03-02T19:38:11.306Z,25.90
2023-03-02T19:43:03.313Z,24.90
2023-03-02T19:47:57.825Z,26.15
2023-03-02T19:52:52.499Z,27.40
2023-03-02T19:57:44.611Z,27.55
2023-03-02T20:02:37.281Z,28.30
2023-03-02T20:07:29.270Z,26.40
2023-03-02T20:12:20.993Z,26.10
2023-03-02T20:17:13.412Z,28.02
2023-03-02T20:22:07.013Z,28.20
2023-03-02T20:26:58.842Z,30.00
2023-03-02T20:31:50.654Z,31.23
2023-03-02T20:36:43.532Z,28.95
2023-03-02T20:41:36.354Z,29.42
2023-03-02T20:46:32.556Z,29.02
2023-03-02T20:51:24.854Z,28.50
2023-03-02T20:56:20.422Z,30.48
2023-03-02T21:01:12.997Z,29.40
2023-03-02T21:06:05.529Z,29.33
2023-03-02T21:10:57.212Z,28.73
2023-03-02T21:15:49.247Z,29.42
2023-03-02T21:20:41.057Z,28.52
2023-03-02T21:25:33.231Z,28.75
2023-03-02T21:30:28.900Z,28.23
2023-03-02T21:35:21.864Z,30.50
2023-03-02T21:40:43.124Z,28.45
2023-03-02T21:45:36.124Z,31.45
2023-03-02T21:50:32.072Z,29.73
2023-03-02T21:55:23.773Z,27.88
2023-03-02T22:00:22.198Z,30.52
2023-03-02T22:10:06.290Z,29.70
2023-03-02T22:15:00.379Z,29.58
2023-03-02T22:19:52.504Z,29.98
2023-03-02T22:24:49.243Z,29.17
2023-03-02T22:29:46.151Z,31.33
2023-03-02T22:34:37.994Z,32.08
2023-03-02T22:39:33.061Z,30.50
2023-03-02T22:44:25.015Z,30.10
2023-03-02T22:49:17.923Z,30.45
2023-03-02T22:54:37.370Z,30.08
2023-03-02T22:59:36.576Z,28.88
2023-03-02T23:04:35.331Z,30.17
2023-03-02T23:09:30.004Z,29.10
2023-03-02T23:14:24.942Z,30.58
2023-03-02T23:19:16.696Z,29.98
2023-03-02T23:24:08.892Z,30.48
2023-03-02T23:29:01.120Z,30.95
2023-03-02T23:33:53.106Z,28.77
2023-03-02T23:38:44.857Z,30.33
2023-03-02T23:43:36.592Z,33.40
2023-03-02T23:48:28.607Z,31.05
2023-03-02T23:53:20.497Z,32.60
2023-03-02T23:58:12.328Z,29.45
